N6186F KBUF-KCAK
Flight info
| Callsign | N6186F |
|---|---|
| Flight time | N/A |
| Altitude | VFR/125 |
| Route | |
| Aircraft | HDJT/L-VGDW/C |
Departure
| Time | 2026-05-09 01:48 |
|---|---|
| Airport | Buffalo Niagara International Airport (KBUF) |
Arrival
| Time | N/A |
|---|---|
| Airport | Akron Canton Regional Airport (KCAK) |
| Time | Latitude | Longitude | Altitude | Speed | Heading |
|---|---|---|---|---|---|
| 2026-05-09 01:34 | 42.93861 | -78.74060 | 719 ft | 0 kts | 83° |
| 2026-05-09 01:40 | 42.93870 | -78.74021 | 717 ft | 15 kts | 70° |
| 2026-05-09 01:40 | 42.93884 | -78.73875 | 716 ft | 15 kts | 127° |
| 2026-05-09 01:41 | 42.93802 | -78.73828 | 718 ft | 9 kts | 153° |
| 2026-05-09 01:41 | 42.93766 | -78.73769 | 716 ft | 13 kts | 116° |
| 2026-05-09 01:41 | 42.93722 | -78.73666 | 716 ft | 12 kts | 120° |
| 2026-05-09 01:41 | 42.93680 | -78.73563 | 717 ft | 13 kts | 115° |
| 2026-05-09 01:42 | 42.93659 | -78.73422 | 719 ft | 18 kts | 91° |
| 2026-05-09 01:42 | 42.93672 | -78.73244 | 719 ft | 16 kts | 58° |
| 2026-05-09 01:42 | 42.93749 | -78.73132 | 719 ft | 17 kts | 44° |
| 2026-05-09 01:42 | 42.93831 | -78.73024 | 720 ft | 16 kts | 43° |
| 2026-05-09 01:43 | 42.93893 | -78.72944 | 720 ft | 1 kts | 44° |
| 2026-05-09 01:43 | 42.93894 | -78.72944 | 720 ft | 2 kts | 44° |
| 2026-05-09 01:43 | 42.93991 | -78.72816 | 720 ft | 33 kts | 44° |
| 2026-05-09 01:44 | 42.94156 | -78.72600 | 720 ft | 32 kts | 44° |
| 2026-05-09 01:44 | 42.94314 | -78.72392 | 721 ft | 31 kts | 44° |
| 2026-05-09 01:44 | 42.94464 | -78.72198 | 723 ft | 28 kts | 45° |
| 2026-05-09 01:44 | 42.94590 | -78.72025 | 722 ft | 20 kts | 44° |
| 2026-05-09 01:45 | 42.94648 | -78.71993 | 722 ft | 0 kts | 330° |
| 2026-05-09 01:46 | 42.94662 | -78.72007 | 722 ft | 14 kts | 323° |
| 2026-05-09 01:46 | 42.94695 | -78.72109 | 722 ft | 10 kts | 239° |
| 2026-05-09 01:47 | 42.94687 | -78.72122 | 724 ft | 0 kts | 228° |
| 2026-05-09 01:47 | 42.94475 | -78.72401 | 722 ft | 92 kts | 223° |
| 2026-05-09 01:47 | 42.93818 | -78.73241 | 820 ft | 155 kts | 224° |
| 2026-05-09 01:47 | 42.92962 | -78.74423 | 965 ft | 188 kts | 227° |
| 2026-05-09 01:48 | 42.92051 | -78.75799 | 1692 ft | 202 kts | 229° |
| 2026-05-09 01:48 | 42.91081 | -78.77278 | 2410 ft | 216 kts | 229° |
| 2026-05-09 01:48 | 42.90047 | -78.78856 | 3137 ft | 230 kts | 229° |
| 2026-05-09 01:48 | 42.88953 | -78.80530 | 3872 ft | 242 kts | 229° |
| 2026-05-09 01:49 | 42.87808 | -78.82281 | 4607 ft | 253 kts | 229° |
| 2026-05-09 01:49 | 42.86619 | -78.84098 | 5350 ft | 260 kts | 229° |
| 2026-05-09 01:49 | 42.85402 | -78.85894 | 6083 ft | 262 kts | 225° |
| 2026-05-09 01:49 | 42.84076 | -78.87624 | 6828 ft | 265 kts | 224° |
| 2026-05-09 01:50 | 42.82759 | -78.89404 | 7575 ft | 268 kts | 226° |
| 2026-05-09 01:50 | 42.81460 | -78.91247 | 8324 ft | 271 kts | 226° |
| 2026-05-09 01:50 | 42.80139 | -78.93104 | 9071 ft | 274 kts | 226° |
| 2026-05-09 01:50 | 42.78796 | -78.94966 | 9820 ft | 277 kts | 226° |
| 2026-05-09 01:51 | 42.77441 | -78.96847 | 10567 ft | 280 kts | 226° |
| 2026-05-09 01:51 | 42.76068 | -78.98757 | 11315 ft | 283 kts | 226° |
| 2026-05-09 01:51 | 42.74679 | -79.00688 | 12066 ft | 287 kts | 226° |
| 2026-05-09 01:51 | 42.73272 | -79.02641 | 12494 ft | 292 kts | 226° |
| 2026-05-09 01:52 | 42.71852 | -79.04610 | 12496 ft | 291 kts | 226° |
| 2026-05-09 01:52 | 42.70505 | -79.06479 | 12496 ft | 291 kts | 226° |
| 2026-05-09 01:52 | 42.69049 | -79.08496 | 12496 ft | 291 kts | 226° |
| 2026-05-09 01:52 | 42.67630 | -79.10460 | 12496 ft | 291 kts | 226° |
| 2026-05-09 01:53 | 42.66227 | -79.12402 | 12495 ft | 291 kts | 226° |
| 2026-05-09 01:53 | 42.64808 | -79.14363 | 12495 ft | 291 kts | 226° |
| 2026-05-09 01:53 | 42.63390 | -79.16324 | 12495 ft | 291 kts | 226° |
| 2026-05-09 01:53 | 42.61971 | -79.18282 | 12495 ft | 291 kts | 226° |
| 2026-05-09 01:54 | 42.60552 | -79.20240 | 12495 ft | 291 kts | 226° |
| 2026-05-09 01:54 | 42.59114 | -79.22224 | 12495 ft | 307 kts | 226° |
| 2026-05-09 01:54 | 42.57540 | -79.24393 | 12499 ft | 336 kts | 226° |
| 2026-05-09 01:54 | 42.55838 | -79.26736 | 12503 ft | 359 kts | 225° |
| 2026-05-09 01:55 | 42.54070 | -79.29168 | 12511 ft | 375 kts | 225° |
| 2026-05-09 01:55 | 42.52202 | -79.31736 | 12508 ft | 387 kts | 225° |
| 2026-05-09 01:55 | 42.50291 | -79.34359 | 12508 ft | 396 kts | 225° |
| 2026-05-09 01:55 | 42.48339 | -79.37037 | 12510 ft | 401 kts | 225° |
| 2026-05-09 01:56 | 42.46368 | -79.39738 | 12507 ft | 405 kts | 225° |
| 2026-05-09 01:56 | 42.44383 | -79.42456 | 12509 ft | 408 kts | 225° |
| 2026-05-09 01:56 | 42.42385 | -79.45190 | 12510 ft | 409 kts | 225° |
| 2026-05-09 01:56 | 42.40373 | -79.47921 | 12510 ft | 410 kts | 225° |
| 2026-05-09 01:57 | 42.38345 | -79.50651 | 12509 ft | 411 kts | 225° |
| 2026-05-09 01:57 | 42.36325 | -79.53390 | 12510 ft | 412 kts | 225° |
| 2026-05-09 01:57 | 42.34336 | -79.56095 | 12510 ft | 412 kts | 225° |
| 2026-05-09 01:57 | 42.32307 | -79.58840 | 12508 ft | 412 kts | 225° |
| 2026-05-09 01:58 | 42.30279 | -79.61576 | 12510 ft | 412 kts | 225° |
| 2026-05-09 01:58 | 42.28251 | -79.64315 | 12510 ft | 412 kts | 225° |
| 2026-05-09 01:58 | 42.26223 | -79.67054 | 12510 ft | 413 kts | 225° |
| 2026-05-09 01:58 | 42.24192 | -79.69791 | 12509 ft | 413 kts | 225° |
| 2026-05-09 01:59 | 42.22161 | -79.72526 | 12510 ft | 413 kts | 225° |
| 2026-05-09 01:59 | 42.20128 | -79.75261 | 12509 ft | 413 kts | 225° |
| 2026-05-09 01:59 | 42.18095 | -79.77994 | 12510 ft | 413 kts | 225° |
| 2026-05-09 01:59 | 42.16087 | -79.80690 | 12509 ft | 413 kts | 225° |
| 2026-05-09 02:00 | 42.14052 | -79.83420 | 12509 ft | 413 kts | 225° |
| 2026-05-09 02:00 | 42.12013 | -79.86153 | 12509 ft | 413 kts | 225° |
| 2026-05-09 02:00 | 42.09977 | -79.88880 | 12510 ft | 413 kts | 225° |
| 2026-05-09 02:00 | 42.07939 | -79.91604 | 12510 ft | 413 kts | 225° |
| 2026-05-09 02:01 | 42.05902 | -79.94327 | 12509 ft | 413 kts | 225° |
| 2026-05-09 02:01 | 42.03864 | -79.97048 | 12508 ft | 413 kts | 225° |
| 2026-05-09 02:01 | 42.01824 | -79.99767 | 12508 ft | 413 kts | 225° |
| 2026-05-09 02:01 | 41.99785 | -80.02486 | 12509 ft | 413 kts | 225° |
| 2026-05-09 02:02 | 41.97745 | -80.05201 | 12509 ft | 413 kts | 225° |
| 2026-05-09 02:02 | 41.95731 | -80.07880 | 12509 ft | 413 kts | 225° |
| 2026-05-09 02:02 | 41.93690 | -80.10593 | 12508 ft | 413 kts | 225° |
| 2026-05-09 02:02 | 41.91647 | -80.13303 | 12510 ft | 413 kts | 225° |
| 2026-05-09 02:03 | 41.89601 | -80.16018 | 12510 ft | 413 kts | 225° |
| 2026-05-09 02:03 | 41.87557 | -80.18725 | 12510 ft | 413 kts | 225° |
| 2026-05-09 02:03 | 41.85513 | -80.21431 | 12508 ft | 413 kts | 225° |
| 2026-05-09 02:03 | 41.83469 | -80.24135 | 12510 ft | 413 kts | 225° |
| 2026-05-09 02:04 | 41.81423 | -80.26836 | 12510 ft | 413 kts | 225° |
| 2026-05-09 02:04 | 41.79376 | -80.29539 | 12510 ft | 413 kts | 225° |
| 2026-05-09 02:04 | 41.77330 | -80.32237 | 12509 ft | 413 kts | 225° |
| 2026-05-09 02:04 | 41.75282 | -80.34934 | 12509 ft | 413 kts | 225° |
| 2026-05-09 02:05 | 41.73262 | -80.37595 | 12510 ft | 413 kts | 225° |
| 2026-05-09 02:05 | 41.71213 | -80.40287 | 12510 ft | 413 kts | 225° |
| 2026-05-09 02:05 | 41.69165 | -80.42979 | 12510 ft | 413 kts | 225° |
| 2026-05-09 02:05 | 41.67116 | -80.45668 | 12510 ft | 413 kts | 225° |
| 2026-05-09 02:06 | 41.65066 | -80.48355 | 12510 ft | 413 kts | 225° |
| 2026-05-09 02:06 | 41.63016 | -80.51042 | 12509 ft | 413 kts | 224° |
| 2026-05-09 02:06 | 41.60965 | -80.53726 | 12510 ft | 413 kts | 224° |
| 2026-05-09 02:07 | 41.56857 | -80.59094 | 12509 ft | 413 kts | 224° |
| 2026-05-09 02:07 | 41.54876 | -80.61679 | 12509 ft | 374 kts | 224° |
| 2026-05-09 02:07 | 41.53123 | -80.63964 | 12504 ft | 333 kts | 224° |
| 2026-05-09 02:07 | 41.51541 | -80.66025 | 12376 ft | 306 kts | 224° |
| 2026-05-09 02:08 | 41.50075 | -80.67934 | 12098 ft | 292 kts | 224° |
| 2026-05-09 02:08 | 41.48640 | -80.69803 | 11817 ft | 288 kts | 224° |
| 2026-05-09 02:08 | 41.47206 | -80.71667 | 11537 ft | 288 kts | 224° |
| 2026-05-09 02:08 | 41.45776 | -80.73525 | 11257 ft | 286 kts | 224° |
| 2026-05-09 02:09 | 41.44354 | -80.75373 | 10978 ft | 285 kts | 224° |
| 2026-05-09 02:09 | 41.42936 | -80.77212 | 10702 ft | 284 kts | 224° |
| 2026-05-09 02:09 | 41.41522 | -80.79047 | 10426 ft | 283 kts | 224° |
| 2026-05-09 02:09 | 41.40118 | -80.80866 | 10149 ft | 282 kts | 224° |
| 2026-05-09 02:10 | 41.38714 | -80.82685 | 9870 ft | 280 kts | 224° |
| 2026-05-09 02:10 | 41.37318 | -80.84492 | 9594 ft | 279 kts | 224° |
| 2026-05-09 02:10 | 41.35928 | -80.86290 | 9321 ft | 278 kts | 224° |
| 2026-05-09 02:10 | 41.34561 | -80.88058 | 9049 ft | 277 kts | 224° |
| 2026-05-09 02:11 | 41.33181 | -80.89841 | 8773 ft | 276 kts | 224° |
| 2026-05-09 02:11 | 41.31807 | -80.91616 | 8498 ft | 275 kts | 224° |
| 2026-05-09 02:11 | 41.30437 | -80.93382 | 8223 ft | 274 kts | 224° |
| 2026-05-09 02:11 | 41.29074 | -80.95142 | 7947 ft | 273 kts | 224° |
| 2026-05-09 02:12 | 41.27715 | -80.96893 | 7671 ft | 272 kts | 224° |
| 2026-05-09 02:12 | 41.26361 | -80.98637 | 7396 ft | 270 kts | 224° |
| 2026-05-09 02:12 | 41.25010 | -81.00376 | 7120 ft | 269 kts | 224° |
| 2026-05-09 02:12 | 41.23667 | -81.02104 | 6845 ft | 268 kts | 224° |
| 2026-05-09 02:13 | 41.22328 | -81.03826 | 6569 ft | 267 kts | 224° |
| 2026-05-09 02:13 | 41.21013 | -81.05515 | 6505 ft | 267 kts | 224° |
| 2026-05-09 02:13 | 41.19679 | -81.07230 | 6505 ft | 267 kts | 224° |
| 2026-05-09 02:13 | 41.18344 | -81.08942 | 6505 ft | 267 kts | 224° |
| 2026-05-09 02:14 | 41.17008 | -81.10656 | 6505 ft | 267 kts | 224° |
| 2026-05-09 02:14 | 41.15671 | -81.12371 | 6358 ft | 268 kts | 224° |
| 2026-05-09 02:14 | 41.14334 | -81.14083 | 5983 ft | 265 kts | 224° |
| 2026-05-09 02:14 | 41.13016 | -81.15771 | 5612 ft | 260 kts | 224° |
| 2026-05-09 02:15 | 41.11742 | -81.17400 | 5232 ft | 250 kts | 224° |
| 2026-05-09 02:15 | 41.10514 | -81.18972 | 4856 ft | 242 kts | 224° |
| 2026-05-09 02:15 | 41.09320 | -81.20497 | 4479 ft | 235 kts | 224° |
| 2026-05-09 02:15 | 41.08180 | -81.21954 | 4104 ft | 210 kts | 224° |
| 2026-05-09 02:16 | 41.07210 | -81.23191 | 3729 ft | 181 kts | 224° |
| 2026-05-09 02:16 | 41.06337 | -81.24308 | 3358 ft | 180 kts | 224° |
| 2026-05-09 02:16 | 41.05416 | -81.25483 | 3014 ft | 186 kts | 224° |
| 2026-05-09 02:16 | 41.04512 | -81.26636 | 2998 ft | 172 kts | 224° |
| 2026-05-09 02:17 | 41.03644 | -81.27741 | 2993 ft | 173 kts | 224° |
| 2026-05-09 02:17 | 41.02780 | -81.28844 | 2992 ft | 173 kts | 224° |
| 2026-05-09 02:17 | 41.01823 | -81.29799 | 2994 ft | 173 kts | 209° |
| 2026-05-09 02:17 | 41.00895 | -81.30796 | 2991 ft | 173 kts | 227° |
| 2026-05-09 02:18 | 41.00072 | -81.31957 | 2991 ft | 173 kts | 227° |
| 2026-05-09 02:18 | 40.99249 | -81.33115 | 3000 ft | 172 kts | 228° |
| 2026-05-09 02:18 | 40.98450 | -81.34287 | 3007 ft | 172 kts | 228° |
| 2026-05-09 02:18 | 40.97703 | -81.35354 | 2872 ft | 141 kts | 228° |
| 2026-05-09 02:19 | 40.97070 | -81.36267 | 2721 ft | 133 kts | 228° |
| 2026-05-09 02:19 | 40.96441 | -81.37173 | 2520 ft | 134 kts | 228° |
| 2026-05-09 02:19 | 40.95811 | -81.38081 | 2324 ft | 133 kts | 228° |
| 2026-05-09 02:19 | 40.95187 | -81.38981 | 2126 ft | 132 kts | 228° |
| 2026-05-09 02:20 | 40.94568 | -81.39880 | 1921 ft | 132 kts | 228° |
| 2026-05-09 02:20 | 40.93943 | -81.40781 | 1697 ft | 135 kts | 228° |
| 2026-05-09 02:20 | 40.93295 | -81.41705 | 1411 ft | 137 kts | 226° |
| 2026-05-09 02:20 | 40.92671 | -81.42607 | 1350 ft | 131 kts | 228° |
| 2026-05-09 02:21 | 40.92047 | -81.43500 | 1290 ft | 136 kts | 227° |
| 2026-05-09 02:21 | 40.91317 | -81.44549 | 1262 ft | 185 kts | 227° |
| 2026-05-09 02:21 | 40.90384 | -81.45922 | 1541 ft | 219 kts | 227° |
| 2026-05-09 02:21 | 40.89421 | -81.47314 | 1891 ft | 188 kts | 228° |
| 2026-05-09 02:22 | 40.88531 | -81.48572 | 1811 ft | 188 kts | 227° |
| 2026-05-09 02:22 | 40.87733 | -81.49788 | 2149 ft | 160 kts | 229° |
| 2026-05-09 02:22 | 40.87031 | -81.50832 | 2313 ft | 148 kts | 227° |
| 2026-05-09 02:22 | 40.86321 | -81.51761 | 2565 ft | 139 kts | 224° |
| 2026-05-09 02:23 | 40.85608 | -81.52674 | 2984 ft | 158 kts | 225° |
| 2026-05-09 02:23 | 40.84725 | -81.53808 | 2989 ft | 190 kts | 225° |
| 2026-05-09 02:23 | 40.83732 | -81.55086 | 2990 ft | 205 kts | 225° |
| 2026-05-09 02:23 | 40.82731 | -81.56375 | 2994 ft | 203 kts | 225° |
| 2026-05-09 02:24 | 40.81717 | -81.57681 | 2825 ft | 203 kts | 225° |